Rick Husband Amarillo International Airport

Airport
ICAO code: 
KAMA
Summary
ICAO Region: 
NAM
Territory: 
Location: 
Amarillo, Texas,
Coordinates: 
Aerial View: 
35° 13' 6.6" N, 101° 42' 18.95" W
Airport WX: 
Tornado
Metar
Observation
KAMA 020853Z AUTO 25007KT 10SM CLR 07/M04 A3014 RMK AO2 SLP178 T00671039 55005
Station
Amarillo, Amarillo International Airport
Date/Time
2021-12-02 08:53:00
Wind direction
250°
Wind speed
07 kts
Lowest cloud amount
n/a
Temperature
6.7°C
Dew point
-3.9°C
Humidity
46%
Weather condition
n/a

Description

Rick Husband Amarillo International Airport is a public use airport located 10 km east of the central business district of Amarillo, in Potter and Randall Counties, Texas.

Climatology

Semi-arid Steppe climate (Köppen climate classification BSk) - Little precipitation, hot summers and cool, occasionally cold, winters, sometimes with large changes in temperature in a 24 hour period.

Runways

Designator Length Width Surface Rops
13/31 2408 46 CON Yes/Yes
4/22 4115 91 CON Yes/Yes
Airport map: 
Aerial View: 

SKYbrary Partners:

Safety knowledge contributed by: